createdAt,value
2018-02-08T00:00:06.259Z,0
2018-02-08T00:01:15.083Z,0
2018-02-08T00:02:24.053Z,0
2018-02-08T00:03:33.149Z,0
2018-02-08T00:04:41.968Z,0
2018-02-08T00:05:50.789Z,0
2018-02-08T00:06:59.606Z,0
2018-02-08T00:08:08.727Z,0
2018-02-08T00:09:17.817Z,0
2018-02-08T00:10:26.640Z,0
2018-02-08T00:11:35.463Z,0
2018-02-08T00:12:44.559Z,0
2018-02-08T00:13:53.429Z,0
2018-02-08T00:15:02.249Z,0
2018-02-08T00:16:11.071Z,0
2018-02-08T00:17:19.890Z,0
2018-02-08T00:18:28.712Z,0
2018-02-08T00:19:37.953Z,0
2018-02-08T00:20:46.772Z,0
2018-02-08T00:21:55.868Z,0
2018-02-08T00:23:04.685Z,0
2018-02-08T00:24:13.506Z,0
2018-02-08T00:25:22.422Z,0
2018-02-08T00:26:31.243Z,0
2018-02-08T00:27:40.063Z,0
2018-02-08T00:28:48.884Z,0
2018-02-08T00:29:57.702Z,0
2018-02-08T00:31:06.626Z,0
2018-02-08T00:32:15.447Z,0
2018-02-08T00:33:24.267Z,0
2018-02-08T00:34:33.087Z,0
2018-02-08T00:35:41.906Z,0
2018-02-08T00:36:50.975Z,0
2018-02-08T00:37:59.794Z,0
2018-02-08T00:39:08.615Z,0
2018-02-08T00:40:17.435Z,0
2018-02-08T00:41:26.254Z,0
2018-02-08T00:42:35.173Z,0
2018-02-08T00:43:43.993Z,0
2018-02-08T00:44:52.811Z,0
2018-02-08T00:46:01.632Z,0
2018-02-08T00:47:10.453Z,0
2018-02-08T00:48:19.576Z,0
2018-02-08T00:49:28.396Z,0
2018-02-08T00:50:37.215Z,0
2018-02-08T00:51:46.034Z,0
2018-02-08T00:52:54.855Z,0
2018-02-08T00:54:03.727Z,0
2018-02-08T00:55:12.546Z,0
2018-02-08T00:56:21.367Z,0
2018-02-08T00:57:30.193Z,0
2018-02-08T00:58:39.012Z,0
2018-02-08T00:59:47.832Z,0
2018-02-08T01:00:56.653Z,0
2018-02-08T01:02:05.474Z,0
2018-02-08T01:03:14.294Z,0
2018-02-08T01:04:23.116Z,0
2018-02-08T01:05:32.085Z,0
2018-02-08T01:06:40.902Z,0
2018-02-08T01:07:49.721Z,0
2018-02-08T01:08:58.541Z,0
2018-02-08T01:10:07.362Z,0
2018-02-08T01:11:16.486Z,0
2018-02-08T01:12:25.304Z,0
2018-02-08T01:13:34.125Z,0
2018-02-08T01:14:42.946Z,0
2018-02-08T01:15:51.812Z,0
2018-02-08T01:17:00.739Z,0
2018-02-08T01:18:09.832Z,0
2018-02-08T01:19:18.654Z,0
2018-02-08T01:20:27.475Z,0
2018-02-08T01:21:36.294Z,0
2018-02-08T01:22:45.265Z,0
2018-02-08T01:23:54.086Z,0
2018-02-08T01:25:02.908Z,0
2018-02-08T01:26:11.733Z,0
2018-02-08T01:27:20.547Z,0
2018-02-08T01:28:29.769Z,0
2018-02-08T01:29:38.590Z,0
2018-02-08T01:30:47.412Z,0
2018-02-08T01:31:56.232Z,0
2018-02-08T01:33:05.327Z,0
2018-02-08T01:34:14.246Z,0
2018-02-08T01:35:23.076Z,0
2018-02-08T01:36:31.894Z,0
2018-02-08T01:37:40.713Z,0
2018-02-08T01:38:49.535Z,0
2018-02-08T01:39:58.457Z,0
2018-02-08T01:41:07.278Z,0
2018-02-08T01:42:16.096Z,0
2018-02-08T01:43:24.914Z,0
2018-02-08T01:44:34.017Z,0
2018-02-08T01:45:43.111Z,0
2018-02-08T01:46:51.932Z,0
2018-02-08T01:48:00.753Z,0
2018-02-08T01:49:09.575Z,0
2018-02-08T01:50:18.395Z,0
2018-02-08T01:51:27.371Z,0
2018-02-08T01:52:36.196Z,0
2018-02-08T01:53:45.290Z,0
2018-02-08T01:54:54.110Z,0
2018-02-08T01:56:02.938Z,0
2018-02-08T01:57:11.911Z,0
2018-02-08T01:58:20.732Z,0
2018-02-08T01:59:29.823Z,0
2018-02-08T02:00:38.642Z,0
2018-02-08T02:01:47.463Z,0
2018-02-08T02:02:56.384Z,0
2018-02-08T02:04:05.201Z,0
2018-02-08T02:05:14.022Z,0
2018-02-08T02:06:22.850Z,0
2018-02-08T02:07:31.674Z,0
2018-02-08T02:08:40.492Z,0
2018-02-08T02:09:49.312Z,0
2018-02-08T02:10:58.132Z,0
2018-02-08T02:12:06.952Z,0
2018-02-08T02:13:16.043Z,0
2018-02-08T02:14:24.860Z,0
2018-02-08T02:15:33.680Z,0
2018-02-08T02:16:42.502Z,0
2018-02-08T02:17:51.321Z,0
2018-02-08T02:19:00.142Z,0
2018-02-08T02:20:09.017Z,0
2018-02-08T02:21:17.830Z,0
2018-02-08T02:22:26.650Z,0
2018-02-08T02:23:35.744Z,0
2018-02-08T02:24:44.564Z,0
2018-02-08T02:25:53.486Z,0
2018-02-08T02:27:02.308Z,0
2018-02-08T02:28:11.128Z,0
2018-02-08T02:29:19.947Z,0
2018-02-08T02:30:28.769Z,0
2018-02-08T02:31:37.886Z,0
2018-02-08T02:32:46.709Z,0
2018-02-08T02:33:55.531Z,0
2018-02-08T02:35:04.632Z,0
2018-02-08T02:36:13.453Z,0
2018-02-08T02:37:22.372Z,0
2018-02-08T02:38:31.192Z,0
2018-02-08T02:39:40.295Z,0
2018-02-08T02:40:49.386Z,0
2018-02-08T02:41:58.208Z,0
2018-02-08T02:43:07.327Z,0
2018-02-08T02:44:16.148Z,0
2018-02-08T02:45:24.969Z,0
2018-02-08T02:46:33.789Z,0
2018-02-08T02:47:42.885Z,0
2018-02-08T02:48:51.715Z,0
2018-02-08T02:50:00.534Z,0
2018-02-08T02:51:09.353Z,0
2018-02-08T02:52:18.175Z,0
2018-02-08T02:53:27.280Z,0
2018-02-08T02:54:36.746Z,0
2018-02-08T02:55:45.572Z,0
2018-02-08T02:56:54.668Z,0
2018-02-08T02:58:03.490Z,0
2018-02-08T02:59:12.582Z,0
2018-02-08T03:00:21.503Z,0
2018-02-08T03:01:30.329Z,0
2018-02-08T03:02:39.423Z,0
2018-02-08T03:03:48.244Z,0
2018-02-08T03:04:57.064Z,0
2018-02-08T03:06:05.983Z,0
2018-02-08T03:07:14.801Z,0
2018-02-08T03:08:23.623Z,0
2018-02-08T03:09:32.445Z,0
2018-02-08T03:10:41.261Z,0
2018-02-08T03:11:50.232Z,0
2018-02-08T03:12:59.051Z,0
2018-02-08T03:14:07.871Z,0
2018-02-08T03:15:16.688Z,0
2018-02-08T03:16:25.510Z,0
2018-02-08T03:17:34.331Z,0
2018-02-08T03:18:43.148Z,0
2018-02-08T03:19:51.968Z,0
2018-02-08T03:21:00.789Z,0
2018-02-08T03:22:09.614Z,0
2018-02-08T03:23:18.706Z,0
2018-02-08T03:24:27.524Z,0
2018-02-08T03:25:36.342Z,0
2018-02-08T03:26:45.164Z,0
2018-02-08T03:27:53.983Z,0
2018-02-08T03:29:03.130Z,0
2018-02-08T03:30:11.948Z,0
2018-02-08T03:31:20.770Z,0
2018-02-08T03:32:29.590Z,0
2018-02-08T03:33:38.685Z,0
2018-02-08T03:34:47.755Z,0
2018-02-08T03:35:56.573Z,0
2018-02-08T03:37:05.394Z,0
2018-02-08T03:38:14.213Z,0
2018-02-08T03:39:23.033Z,0
2018-02-08T03:40:32.103Z,0
2018-02-08T03:41:40.921Z,0
2018-02-08T03:42:49.739Z,0
2018-02-08T03:43:58.560Z,0
2018-02-08T03:45:07.655Z,0
2018-02-08T03:46:16.576Z,0
2018-02-08T03:47:25.395Z,0
2018-02-08T03:48:34.213Z,0
2018-02-08T03:49:43.030Z,0
2018-02-08T03:50:51.850Z,0
2018-02-08T03:52:00.769Z,0
2018-02-08T03:53:09.588Z,0
2018-02-08T03:54:18.408Z,0
2018-02-08T03:55:27.226Z,0
2018-02-08T03:56:36.043Z,0
2018-02-08T03:57:44.963Z,0
2018-02-08T03:58:53.784Z,0
2018-02-08T04:00:02.606Z,0
2018-02-08T04:01:11.427Z,0
2018-02-08T04:02:20.524Z,0
2018-02-08T04:03:29.618Z,0
2018-02-08T04:04:38.436Z,0
2018-02-08T04:05:47.255Z,0
2018-02-08T04:06:56.075Z,0
2018-02-08T04:08:04.898Z,0
2018-02-08T04:09:14.136Z,0
2018-02-08T04:10:22.958Z,0
2018-02-08T04:11:31.777Z,0
2018-02-08T04:12:40.595Z,0
2018-02-08T04:13:49.414Z,0
2018-02-08T04:14:58.336Z,0
2018-02-08T04:16:07.154Z,0
2018-02-08T04:17:15.973Z,0
2018-02-08T04:18:24.793Z,0
2018-02-08T04:19:33.612Z,0
2018-02-08T04:20:42.531Z,0
2018-02-08T04:21:51.621Z,0
2018-02-08T04:23:00.716Z,0
2018-02-08T04:24:09.810Z,0
2018-02-08T04:25:18.630Z,0
2018-02-08T04:26:27.599Z,0
2018-02-08T04:27:36.418Z,0
2018-02-08T04:28:45.235Z,0
2018-02-08T04:29:54.054Z,0
2018-02-08T04:31:02.878Z,0
2018-02-08T04:32:11.999Z,0
2018-02-08T04:33:20.817Z,0
2018-02-08T04:34:29.637Z,0
2018-02-08T04:35:38.455Z,0
2018-02-08T04:36:47.273Z,0
2018-02-08T04:37:56.089Z,0
2018-02-08T04:39:04.909Z,0
2018-02-08T04:40:13.728Z,0
2018-02-08T04:41:22.547Z,0
2018-02-08T04:42:31.368Z,0
2018-02-08T04:43:40.588Z,0
2018-02-08T04:44:49.406Z,0
2018-02-08T04:45:58.229Z,0
2018-02-08T04:47:07.043Z,0
2018-02-08T04:48:15.863Z,0
2018-02-08T04:49:24.959Z,0
2018-02-08T04:50:33.779Z,0
2018-02-08T04:51:42.599Z,0
2018-02-08T04:52:51.416Z,0
2018-02-08T04:54:00.235Z,0
2018-02-08T04:55:09.054Z,0
2018-02-08T04:56:17.871Z,0
2018-02-08T04:57:26.691Z,0
2018-02-08T04:58:35.785Z,0
2018-02-08T04:59:44.880Z,0
2018-02-08T05:00:53.852Z,0
2018-02-08T05:02:02.673Z,0
2018-02-08T05:03:11.492Z,0
2018-02-08T05:04:20.310Z,0
2018-02-08T05:05:29.129Z,0
2018-02-08T05:06:38.147Z,0
2018-02-08T05:07:46.966Z,0
2018-02-08T05:08:55.788Z,0
2018-02-08T05:10:04.652Z,0
2018-02-08T05:11:13.454Z,0
2018-02-08T05:12:22.243Z,0
2018-02-08T05:13:31.063Z,0
2018-02-08T05:14:39.882Z,0
2018-02-08T05:15:48.701Z,0
2018-02-08T05:16:57.519Z,0
2018-02-08T05:18:06.338Z,0
2018-02-08T05:19:15.157Z,0
2018-02-08T05:20:23.978Z,0
2018-02-08T05:21:32.793Z,0
2018-02-08T05:22:41.614Z,0
2018-02-08T05:23:50.910Z,0
2018-02-08T05:24:59.727Z,0
2018-02-08T05:26:08.549Z,0
2018-02-08T05:27:17.365Z,0
2018-02-08T05:28:26.182Z,0
2018-02-08T05:29:35.275Z,0
2018-02-08T05:30:44.093Z,0
2018-02-08T05:31:52.914Z,0
2018-02-08T05:33:01.735Z,0
2018-02-08T05:34:10.558Z,0
2018-02-08T05:35:19.474Z,0
2018-02-08T05:36:28.571Z,0
2018-02-08T05:37:37.383Z,0
2018-02-08T05:38:46.205Z,0
2018-02-08T05:39:55.025Z,0
2018-02-08T05:41:03.996Z,0
2018-02-08T05:42:12.813Z,0
2018-02-08T05:43:21.631Z,0
2018-02-08T05:44:30.450Z,0
2018-02-08T05:45:39.266Z,0
2018-02-08T05:46:48.335Z,0
2018-02-08T05:47:57.154Z,0
2018-02-08T05:49:05.973Z,0
2018-02-08T05:50:14.793Z,0
2018-02-08T05:51:23.663Z,0
2018-02-08T05:52:32.585Z,0
2018-02-08T05:53:41.403Z,0
2018-02-08T05:54:50.221Z,0
2018-02-08T05:55:59.038Z,0
2018-02-08T05:57:07.867Z,0
2018-02-08T05:58:17.065Z,0
2018-02-08T05:59:25.886Z,0
2018-02-08T06:00:34.705Z,0
2018-02-08T06:01:43.524Z,0
2018-02-08T06:02:52.341Z,0
2018-02-08T06:04:01.467Z,0
2018-02-08T06:05:10.281Z,0
2018-02-08T06:06:19.098Z,0
2018-02-08T06:07:28.193Z,0
2018-02-08T06:08:37.016Z,0
2018-02-08T06:09:45.932Z,0
2018-02-08T06:10:54.751Z,0
2018-02-08T06:12:03.571Z,0
2018-02-08T06:13:12.389Z,0
2018-02-08T06:14:21.209Z,0
2018-02-08T06:15:30.328Z,0
2018-02-08T06:16:39.149Z,0
2018-02-08T06:17:47.966Z,0
2018-02-08T06:18:57.060Z,0
2018-02-08T06:20:06.152Z,0
2018-02-08T06:21:15.122Z,0
2018-02-08T06:22:23.942Z,0
2018-02-08T06:23:32.761Z,0
2018-02-08T06:24:41.582Z,0
2018-02-08T06:25:50.401Z,0
2018-02-08T06:26:59.373Z,0
2018-02-08T06:28:08.192Z,4
2018-02-08T06:29:17.011Z,0
2018-02-08T06:30:25.831Z,0
2018-02-08T06:31:34.652Z,4
2018-02-08T06:32:43.521Z,4
2018-02-08T06:33:52.340Z,4
2018-02-08T06:35:01.161Z,4
2018-02-08T06:36:09.980Z,8
2018-02-08T06:37:18.803Z,8
2018-02-08T06:38:27.719Z,8
2018-02-08T06:39:36.538Z,8
2018-02-08T06:40:45.357Z,16
2018-02-08T06:41:54.175Z,16
2018-02-08T06:43:02.992Z,20
2018-02-08T06:44:11.961Z,24
2018-02-08T06:45:20.779Z,28
2018-02-08T06:46:29.599Z,36
2018-02-08T06:47:38.468Z,44
2018-02-08T06:48:47.293Z,48
2018-02-08T06:49:56.157Z,56
2018-02-08T06:51:05.251Z,64
2018-02-08T06:52:14.072Z,72
2018-02-08T06:53:22.889Z,80
2018-02-08T06:54:31.708Z,92
2018-02-08T06:55:40.678Z,100
2018-02-08T06:56:49.498Z,112
2018-02-08T06:57:58.314Z,124
2018-02-08T06:59:07.134Z,132
2018-02-08T07:00:15.953Z,144
2018-02-08T07:01:24.873Z,156
2018-02-08T07:02:33.692Z,164
2018-02-08T07:03:42.855Z,176
2018-02-08T07:04:51.952Z,192
2018-02-08T07:06:00.772Z,200
2018-02-08T07:07:09.993Z,216
2018-02-08T07:08:18.811Z,224
2018-02-08T07:09:27.630Z,240
2018-02-08T07:10:36.451Z,252
2018-02-08T07:11:45.277Z,264
2018-02-08T07:12:54.356Z,280
2018-02-08T07:14:03.176Z,292
2018-02-08T07:15:11.999Z,308
2018-02-08T07:16:20.818Z,320
2018-02-08T07:17:29.638Z,336
2018-02-08T07:18:38.509Z,348
2018-02-08T07:19:47.328Z,364
2018-02-08T07:20:56.148Z,380
2018-02-08T07:22:04.969Z,392
2018-02-08T07:23:13.789Z,412
2018-02-08T07:24:22.656Z,428
2018-02-08T07:25:31.480Z,448
2018-02-08T07:26:40.575Z,464
2018-02-08T07:27:49.397Z,484
2018-02-08T07:28:58.213Z,500
2018-02-08T07:30:07.132Z,520
2018-02-08T07:31:15.955Z,532
2018-02-08T07:32:24.771Z,552
2018-02-08T07:33:33.590Z,568
2018-02-08T07:34:42.411Z,588
2018-02-08T07:35:51.280Z,604
2018-02-08T07:37:00.102Z,620
2018-02-08T07:38:08.924Z,636
2018-02-08T07:39:17.745Z,652
2018-02-08T07:40:26.565Z,672
2018-02-08T07:41:35.487Z,688
2018-02-08T07:42:44.307Z,704
2018-02-08T07:43:53.128Z,720
2018-02-08T07:45:01.948Z,748
2018-02-08T07:46:10.771Z,788
2018-02-08T07:47:19.915Z,904
2018-02-08T07:48:29.016Z,872
2018-02-08T07:49:37.836Z,816
2018-02-08T07:50:46.657Z,816
2018-02-08T07:51:55.478Z,836
2018-02-08T07:53:04.299Z,852
2018-02-08T07:54:13.122Z,868
2018-02-08T07:55:21.942Z,888
2018-02-08T07:56:30.762Z,904
2018-02-08T07:57:39.583Z,924
2018-02-08T07:58:48.703Z,936
2018-02-08T07:59:57.522Z,956
2018-02-08T08:01:06.345Z,968
2018-02-08T08:02:15.439Z,976
2018-02-08T08:03:24.536Z,980
2018-02-08T08:04:33.456Z,980
2018-02-08T08:05:42.277Z,980
2018-02-08T08:06:51.099Z,976
2018-02-08T08:07:59.922Z,972
2018-02-08T08:09:08.744Z,972
2018-02-08T08:10:17.713Z,968
2018-02-08T08:11:26.542Z,964
2018-02-08T08:12:35.362Z,960
2018-02-08T08:13:44.184Z,984
2018-02-08T08:14:53.005Z,1012
2018-02-08T08:16:01.827Z,1040
2018-02-08T08:17:10.922Z,1064
2018-02-08T08:18:19.745Z,1080
2018-02-08T08:19:28.565Z,1088
2018-02-08T08:20:37.388Z,1092
2018-02-08T08:21:46.307Z,1096
2018-02-08T08:22:55.129Z,1116
2018-02-08T08:24:03.949Z,1124
2018-02-08T08:25:12.772Z,1128
2018-02-08T08:26:21.593Z,1124
2018-02-08T08:27:30.616Z,1128
2018-02-08T08:28:39.710Z,1132
2018-02-08T08:29:48.533Z,1132
2018-02-08T08:30:57.356Z,1136
2018-02-08T08:32:06.449Z,1136
2018-02-08T08:33:15.571Z,1136
2018-02-08T08:34:24.392Z,1132
2018-02-08T08:35:33.214Z,1128
2018-02-08T08:36:42.035Z,1120
2018-02-08T08:37:50.858Z,1112
2018-02-08T08:38:59.987Z,1100
2018-02-08T08:40:08.784Z,1080
2018-02-08T08:41:17.606Z,1064
2018-02-08T08:42:26.426Z,1040
2018-02-08T08:43:35.247Z,1016
2018-02-08T08:44:44.121Z,1004
2018-02-08T08:45:52.940Z,1000
2018-02-08T08:47:01.764Z,1000
2018-02-08T08:48:10.586Z,1000
2018-02-08T08:49:19.406Z,1004
2018-02-08T08:50:28.428Z,1008
2018-02-08T08:51:37.567Z,1012
2018-02-08T08:52:46.343Z,1024
2018-02-08T08:53:55.168Z,1024
2018-02-08T08:55:03.986Z,1040
2018-02-08T08:56:12.856Z,1052
2018-02-08T08:57:21.679Z,1044
2018-02-08T08:58:30.501Z,1040
2018-02-08T08:59:39.324Z,1036
2018-02-08T09:00:48.148Z,1028
2018-02-08T09:01:57.022Z,1020
2018-02-08T09:03:05.845Z,988
2018-02-08T09:04:14.667Z,964
2018-02-08T09:05:23.491Z,948
2018-02-08T09:06:32.311Z,956
2018-02-08T09:07:41.434Z,968
2018-02-08T09:08:50.255Z,992
2018-02-08T09:09:59.348Z,1004
2018-02-08T09:11:08.445Z,1048
2018-02-08T09:12:17.265Z,1120
2018-02-08T09:13:26.237Z,1172
2018-02-08T09:14:35.063Z,1240
2018-02-08T09:15:43.884Z,1252
2018-02-08T09:16:52.706Z,1288
2018-02-08T09:18:01.529Z,1300
2018-02-08T09:19:10.350Z,1312
2018-02-08T09:20:19.173Z,1336
2018-02-08T09:21:27.996Z,1356
2018-02-08T09:22:36.829Z,1372
2018-02-08T09:23:45.643Z,1388
2018-02-08T09:24:54.569Z,1408
2018-02-08T09:26:03.391Z,1416
2018-02-08T09:27:12.215Z,1428
2018-02-08T09:28:21.039Z,1436
2018-02-08T09:29:29.863Z,1452
2018-02-08T09:30:38.886Z,1460
2018-02-08T09:31:47.709Z,1472
2018-02-08T09:32:56.540Z,1476
2018-02-08T09:34:05.639Z,1488
2018-02-08T09:35:14.462Z,1492
2018-02-08T09:36:23.385Z,1500
2018-02-08T09:37:32.211Z,1512
2018-02-08T09:38:41.031Z,1528
2018-02-08T09:39:49.854Z,1536
2018-02-08T09:40:58.675Z,1552
2018-02-08T09:42:07.697Z,1556
2018-02-08T09:43:16.521Z,1560
2018-02-08T09:44:25.346Z,1568
2018-02-08T09:45:34.171Z,1568
2018-02-08T09:46:42.995Z,1568
2018-02-08T09:47:51.917Z,1584
2018-02-08T09:49:00.740Z,1600
2018-02-08T09:50:09.564Z,1612
2018-02-08T09:51:18.665Z,1620
2018-02-08T09:52:27.761Z,1624
2018-02-08T09:53:36.742Z,1628
2018-02-08T09:54:45.557Z,1624
2018-02-08T09:55:54.380Z,1620
2018-02-08T09:57:03.216Z,1612
2018-02-08T09:58:12.029Z,1580
2018-02-08T09:59:21.153Z,1620
2018-02-08T10:00:29.978Z,1684
2018-02-08T10:01:38.803Z,1692
2018-02-08T10:02:47.627Z,1700
2018-02-08T10:03:56.451Z,1700
2018-02-08T10:05:05.327Z,1704
2018-02-08T10:06:14.151Z,1716
2018-02-08T10:07:23.025Z,1720
2018-02-08T10:08:32.130Z,1728
2018-02-08T10:09:40.954Z,1728
2018-02-08T10:10:49.977Z,1740
2018-02-08T10:11:58.804Z,1752
2018-02-08T10:13:07.629Z,1764
2018-02-08T10:14:16.728Z,1784
2018-02-08T10:15:25.552Z,1808
2018-02-08T10:16:34.475Z,1824
2018-02-08T10:17:43.359Z,1848
2018-02-08T10:18:52.514Z,1868
2018-02-08T10:20:01.611Z,1880
2018-02-08T10:21:10.983Z,1880
2018-02-08T10:22:20.208Z,1868
2018-02-08T10:23:29.034Z,1852
2018-02-08T10:24:37.858Z,1856
2018-02-08T10:25:47.237Z,1888
2018-02-08T10:26:56.061Z,1928
2018-02-08T10:28:04.985Z,1928
2018-02-08T10:29:13.811Z,1940
2018-02-08T10:30:22.636Z,1948
2018-02-08T10:31:31.460Z,1960
2018-02-08T10:32:40.283Z,1968
2018-02-08T10:33:49.115Z,1976
2018-02-08T10:34:57.933Z,1984
2018-02-08T10:36:06.858Z,1984
2018-02-08T10:37:15.680Z,1984
2018-02-08T10:38:24.506Z,1980
2018-02-08T10:39:33.855Z,1980
2018-02-08T10:40:42.682Z,1996
2018-02-08T10:41:51.506Z,2004
2018-02-08T10:43:00.659Z,2020
2018-02-08T10:44:09.437Z,2036
2018-02-08T10:45:18.262Z,2040
2018-02-08T10:46:27.087Z,2060
2018-02-08T10:47:35.910Z,2072
2018-02-08T10:48:44.739Z,2076
2018-02-08T10:49:53.561Z,2084
2018-02-08T10:51:02.763Z,2080
2018-02-08T10:52:11.861Z,2040
2018-02-08T10:53:20.685Z,2048
2018-02-08T10:54:29.512Z,2108
2018-02-08T10:55:38.339Z,2148
2018-02-08T10:56:47.463Z,2144
2018-02-08T10:57:56.289Z,2144
2018-02-08T10:59:05.117Z,2164
2018-02-08T11:00:13.940Z,2180
2018-02-08T11:01:22.765Z,2196
2018-02-08T11:02:31.690Z,2208
2018-02-08T11:03:40.515Z,2224
2018-02-08T11:04:49.347Z,2216
2018-02-08T11:05:58.167Z,2220
2018-02-08T11:07:06.995Z,2248
2018-02-08T11:08:15.873Z,2272
2018-02-08T11:09:24.697Z,2292
2018-02-08T11:10:33.526Z,2328
2018-02-08T11:11:42.349Z,2360
2018-02-08T11:12:51.185Z,2392
2018-02-08T11:14:00.156Z,2428
2018-02-08T11:15:08.983Z,2476
2018-02-08T11:16:17.809Z,2528
2018-02-08T11:17:26.636Z,2552
2018-02-08T11:18:35.462Z,2568
2018-02-08T11:19:44.416Z,2560
2018-02-08T11:20:53.212Z,2532
2018-02-08T11:22:02.036Z,2532
2018-02-08T11:23:10.864Z,2568
2018-02-08T11:24:19.689Z,2604
2018-02-08T11:25:28.665Z,2672
2018-02-08T11:26:37.490Z,2720
2018-02-08T11:27:46.318Z,2732
2018-02-08T11:28:55.420Z,2728
2018-02-08T11:30:04.245Z,2708
2018-02-08T11:31:13.074Z,2712
2018-02-08T11:32:21.900Z,2752
2018-02-08T11:33:30.726Z,2796
2018-02-08T11:34:39.825Z,2816
2018-02-08T11:35:48.650Z,2820
2018-02-08T11:36:57.575Z,2848
2018-02-08T11:38:06.400Z,2876
2018-02-08T11:39:15.227Z,2900
2018-02-08T11:40:24.073Z,2968
2018-02-08T11:41:32.899Z,3028
2018-02-08T11:42:41.728Z,3036
2018-02-08T11:43:50.549Z,3016
2018-02-08T11:44:59.378Z,2988
2018-02-08T11:46:08.206Z,3016
2018-02-08T11:47:17.032Z,3044
2018-02-08T11:48:26.286Z,3056
2018-02-08T11:49:35.111Z,3068
2018-02-08T11:50:43.937Z,3076
2018-02-08T11:51:52.765Z,3104
2018-02-08T11:53:01.591Z,3108
2018-02-08T11:54:10.420Z,3128
2018-02-08T11:55:19.546Z,3156
2018-02-08T11:56:28.373Z,3188
2018-02-08T11:57:37.200Z,3184
2018-02-08T11:58:46.236Z,3156
2018-02-08T11:59:55.065Z,3156
2018-02-08T12:01:03.891Z,3196
2018-02-08T12:02:12.715Z,3244
2018-02-08T12:03:21.547Z,3272
2018-02-08T12:04:30.374Z,3240
2018-02-08T12:05:39.200Z,3224
2018-02-08T12:06:48.028Z,3244
2018-02-08T12:07:56.855Z,3276
2018-02-08T12:09:05.684Z,3292
2018-02-08T12:10:14.796Z,3304
2018-02-08T12:11:23.885Z,3324
2018-02-08T12:12:32.711Z,3340
2018-02-08T12:13:41.540Z,3372
2018-02-08T12:14:50.367Z,3424
2018-02-08T12:15:59.195Z,3484
2018-02-08T12:17:08.023Z,3524
2018-02-08T12:18:16.853Z,3520
2018-02-08T12:19:25.680Z,3540
2018-02-08T12:20:34.506Z,3588
2018-02-08T12:21:43.335Z,3676
2018-02-08T12:22:52.160Z,3720
2018-02-08T12:24:00.990Z,3740
2018-02-08T12:25:10.016Z,3768
2018-02-08T12:26:18.842Z,3800
2018-02-08T12:27:27.671Z,3816
2018-02-08T12:28:36.499Z,3820
2018-02-08T12:29:45.326Z,3884
2018-02-08T12:30:54.299Z,3996
2018-02-08T12:32:03.129Z,4048
2018-02-08T12:33:11.956Z,4092
2018-02-08T12:34:20.780Z,4108
2018-02-08T12:35:29.609Z,4116
2018-02-08T12:36:39.011Z,4108
2018-02-08T12:37:48.168Z,4084
2018-02-08T12:38:56.991Z,4088
2018-02-08T12:40:05.818Z,4160
2018-02-08T12:41:14.645Z,4220
2018-02-08T12:42:23.570Z,4252
2018-02-08T12:43:32.400Z,4268
2018-02-08T12:44:41.227Z,4284
2018-02-08T12:45:50.051Z,4308
2018-02-08T12:46:58.891Z,4336
2018-02-08T12:48:07.713Z,4340
2018-02-08T12:49:16.541Z,4200
2018-02-08T12:50:25.368Z,4092
2018-02-08T12:51:34.194Z,4092
2018-02-08T12:52:43.021Z,4176
2018-02-08T12:53:51.948Z,4224
2018-02-08T12:55:00.775Z,4268
2018-02-08T12:56:09.601Z,4300
2018-02-08T12:57:18.429Z,4332
2018-02-08T12:58:27.254Z,4324
2018-02-08T12:59:36.382Z,4284
2018-02-08T13:00:45.209Z,4272
2018-02-08T13:01:54.040Z,4216
2018-02-08T13:03:03.141Z,4212
2018-02-08T13:04:12.257Z,4120
2018-02-08T13:05:21.539Z,4020
2018-02-08T13:06:30.661Z,3904
2018-02-08T13:07:39.741Z,3788
2018-02-08T13:08:48.668Z,3788
2018-02-08T13:09:57.952Z,3848
2018-02-08T13:11:07.161Z,3920
2018-02-08T13:12:16.463Z,4020
2018-02-08T13:13:25.371Z,4232
2018-02-08T13:14:34.515Z,4836
2018-02-08T13:15:43.740Z,6388
2018-02-08T13:16:52.836Z,7396
2018-02-08T13:18:01.941Z,6932
2018-02-08T13:19:10.768Z,5076
2018-02-08T13:20:19.606Z,6032
2018-02-08T13:21:28.438Z,7624
2018-02-08T13:22:37.694Z,8744
2018-02-08T13:23:46.523Z,7604
2018-02-08T13:24:55.352Z,5676
2018-02-08T13:26:04.183Z,8204
2018-02-08T13:27:13.013Z,7584
2018-02-08T13:28:22.220Z,5156
2018-02-08T13:29:31.048Z,7512
2018-02-08T13:30:39.876Z,10268
2018-02-08T13:31:48.976Z,11476
2018-02-08T13:32:57.807Z,8912
2018-02-08T13:34:06.906Z,5760
2018-02-08T13:35:15.734Z,5140
2018-02-08T13:36:24.572Z,5208
2018-02-08T13:37:33.407Z,5000
2018-02-08T13:38:42.248Z,4956
2018-02-08T13:39:51.132Z,4904
2018-02-08T13:40:59.969Z,6708
2018-02-08T13:42:08.802Z,8444
2018-02-08T13:43:17.634Z,6420
2018-02-08T13:44:26.460Z,5604
2018-02-08T13:45:35.591Z,6324
2018-02-08T13:46:44.421Z,5960
2018-02-08T13:47:53.252Z,4760
2018-02-08T13:49:02.112Z,4408
2018-02-08T13:50:10.912Z,4164
2018-02-08T13:51:19.842Z,4084
2018-02-08T13:52:28.670Z,4092
2018-02-08T13:53:37.501Z,4084
2018-02-08T13:54:46.328Z,4044
2018-02-08T13:55:55.157Z,4128
2018-02-08T13:57:04.090Z,4196
2018-02-08T13:58:12.915Z,3912
2018-02-08T13:59:21.746Z,3920
2018-02-08T14:00:30.576Z,4596
2018-02-08T14:01:39.408Z,4752
2018-02-08T14:02:48.233Z,4660
2018-02-08T14:03:57.064Z,6264
2018-02-08T14:05:05.893Z,7288
2018-02-08T14:06:14.721Z,7656
2018-02-08T14:07:23.841Z,8884
2018-02-08T14:08:32.669Z,8632
2018-02-08T14:09:41.499Z,7884
2018-02-08T14:10:50.329Z,7712
2018-02-08T14:11:59.165Z,6092
2018-02-08T14:13:07.992Z,5516
2018-02-08T14:14:16.919Z,5352
2018-02-08T14:15:25.749Z,6144
2018-02-08T14:16:34.581Z,6740
2018-02-08T14:17:43.413Z,5088
2018-02-08T14:18:52.242Z,4188
2018-02-08T14:20:01.224Z,4044
2018-02-08T14:21:10.054Z,4252
2018-02-08T14:22:18.887Z,4696
2018-02-08T14:23:27.739Z,6404
2018-02-08T14:24:36.599Z,7976
2018-02-08T14:25:45.562Z,7932
2018-02-08T14:26:54.394Z,9200
2018-02-08T14:28:03.227Z,9532
2018-02-08T14:29:12.059Z,9160
2018-02-08T14:30:20.889Z,10496
2018-02-08T14:31:29.821Z,10040
2018-02-08T14:32:38.650Z,9612
2018-02-08T14:33:47.481Z,9324
2018-02-08T14:34:56.314Z,8520
2018-02-08T14:36:05.148Z,8104
2018-02-08T14:37:14.082Z,7796
2018-02-08T14:38:22.916Z,7904
2018-02-08T14:39:31.748Z,8184
2018-02-08T14:40:40.582Z,8128
2018-02-08T14:41:49.416Z,7564
2018-02-08T14:42:58.351Z,7308
2018-02-08T14:44:07.212Z,6640
2018-02-08T14:45:16.045Z,5608
2018-02-08T14:46:24.880Z,5788
2018-02-08T14:47:33.714Z,5960
2018-02-08T14:48:42.545Z,5248
2018-02-08T14:49:51.380Z,4652
2018-02-08T14:51:00.214Z,4808
2018-02-08T14:52:09.048Z,5396
2018-02-08T14:53:17.884Z,5536
2018-02-08T14:54:26.713Z,4680
2018-02-08T14:55:35.548Z,4276
2018-02-08T14:56:44.382Z,4232
2018-02-08T14:57:53.215Z,4188
2018-02-08T14:59:02.047Z,4108
2018-02-08T15:00:11.305Z,4132
2018-02-08T15:01:20.138Z,4408
2018-02-08T15:02:28.973Z,4048
2018-02-08T15:03:38.081Z,4052
2018-02-08T15:04:46.914Z,3764
2018-02-08T15:05:55.898Z,3328
2018-02-08T15:07:04.730Z,3340
2018-02-08T15:08:13.562Z,3056
2018-02-08T15:09:22.428Z,2768
2018-02-08T15:10:31.229Z,2612
2018-02-08T15:11:40.160Z,2732
2018-02-08T15:12:48.989Z,3336
2018-02-08T15:13:58.095Z,3416
2018-02-08T15:15:06.927Z,3416
2018-02-08T15:16:16.034Z,2876
2018-02-08T15:17:24.964Z,2672
2018-02-08T15:18:33.799Z,2708
2018-02-08T15:19:42.631Z,2348
2018-02-08T15:20:51.465Z,2692
2018-02-08T15:22:00.297Z,2864
2018-02-08T15:23:09.825Z,2716
2018-02-08T15:24:18.655Z,2380
2018-02-08T15:25:27.484Z,2504
2018-02-08T15:26:36.316Z,2268
2018-02-08T15:27:45.148Z,2076
2018-02-08T15:28:54.081Z,1848
2018-02-08T15:30:02.916Z,1696
2018-02-08T15:31:11.753Z,1608
2018-02-08T15:32:20.579Z,1564
2018-02-08T15:33:29.408Z,1520
2018-02-08T15:34:38.288Z,1472
2018-02-08T15:35:47.117Z,1416
2018-02-08T15:36:55.949Z,1364
2018-02-08T15:38:04.781Z,1324
2018-02-08T15:39:13.609Z,1276
2018-02-08T15:40:22.538Z,1228
2018-02-08T15:41:31.367Z,1180
2018-02-08T15:42:40.197Z,1144
2018-02-08T15:43:49.036Z,1104
2018-02-08T15:44:57.869Z,1064
2018-02-08T15:46:06.808Z,1028
2018-02-08T15:47:15.631Z,996
2018-02-08T15:48:24.458Z,968
2018-02-08T15:49:33.610Z,928
2018-02-08T15:50:42.438Z,892
2018-02-08T15:51:51.264Z,848
2018-02-08T15:53:00.093Z,800
2018-02-08T15:54:08.922Z,764
2018-02-08T15:55:17.751Z,724
2018-02-08T15:56:26.578Z,692
2018-02-08T15:57:35.509Z,660
2018-02-08T15:58:44.337Z,624
2018-02-08T15:59:53.173Z,592
2018-02-08T16:01:01.999Z,556